Time;durP1;ratioP1;P1;durP2;ratioP2;P2;SDS_P1;SDS_P2;PMS_P1;PMS_P2;Temp;Humidity;BMP_temperature;BMP_pressure;BME280_temperature;BME280_humidity;BME280_pressure;Samples;Min_cycle;Max_cycle;Signal;HPM_P1;HPM_P2
2021/01/09 00:01:44;;;;;;;21.47;14.90;;;4.50;99.90;;;4.71;72.37;102052.25;5073908;28;20063;-75
2021/01/09 00:04:11;;;;;;;15.80;13.53;;;4.50;99.90;;;4.72;71.95;102061.91;5073857;28;20086;-74
2021/01/09 00:06:40;;;;;;;25.10;16.00;;;4.50;99.90;;;4.66;71.02;102050.28;5073715;28;20044;-73
2021/01/09 00:09:10;;;;;;;29.20;18.87;;;4.60;99.90;;;4.69;71.88;102063.50;5073736;28;20041;-75
2021/01/09 00:11:38;;;;;;;19.63;14.10;;;4.70;99.90;;;4.57;71.71;102061.31;5073747;28;20048;-74
2021/01/09 00:14:08;;;;;;;17.90;14.47;;;4.50;99.90;;;4.58;71.53;102061.38;5073697;28;20394;-73
2021/01/09 00:16:36;;;;;;;19.73;14.05;;;4.50;99.90;;;4.39;71.40;102045.75;5073509;28;20052;-72
2021/01/09 00:19:04;;;;;;;16.03;14.07;;;4.30;99.90;;;4.41;71.70;102056.31;5073302;28;20064;-74
2021/01/09 00:21:36;;;;;;;18.83;14.43;;;4.30;99.90;;;4.36;71.75;102058.75;5073200;28;20063;-74
2021/01/09 00:24:09;;;;;;;21.70;16.13;;;4.20;99.90;;;4.31;72.31;102067.25;5073435;28;20114;-73
2021/01/09 00:26:37;;;;;;;23.40;16.87;;;4.20;99.90;;;4.33;72.33;102061.25;5071927;28;20413;-73
2021/01/09 00:29:08;;;;;;;21.53;17.17;;;4.10;99.90;;;4.26;72.30;102069.69;5071997;28;20482;-74
2021/01/09 00:31:35;;;;;;;20.90;16.45;;;4.10;99.90;;;4.26;72.39;102069.69;5073031;28;20037;-73
2021/01/09 00:34:03;;;;;;;23.57;17.90;;;4.10;99.90;;;4.17;72.34;102073.66;5072872;28;20086;-73
2021/01/09 00:36:33;;;;;;;;;;;4.00;99.90;;;4.16;71.99;102071.88;5073422;28;20109;-73
2021/01/09 00:39:03;;;;;;;20.30;16.83;;;4.00;99.90;;;4.15;72.01;102076.22;5073104;28;19920;-73
2021/01/09 00:41:33;;;;;;;19.50;15.80;;;4.00;99.90;;;4.19;71.56;102072.91;5072762;28;20500;-74
2021/01/09 00:44:01;;;;;;;24.43;17.47;;;4.00;99.90;;;4.16;71.88;102070.13;5072972;28;20043;-74
2021/01/09 00:46:29;;;;;;;22.33;16.70;;;3.90;99.90;;;4.04;72.15;102051.34;5072560;28;20044;-73
2021/01/09 00:48:59;;;;;;;19.67;15.93;;;4.00;99.90;;;4.07;72.00;102061.03;5072750;28;20123;-73
2021/01/09 00:51:31;;;;;;;23.88;18.13;;;3.90;99.90;;;4.14;72.26;102073.56;5072880;28;20041;-74
2021/01/09 00:53:58;;;;;;;28.03;20.10;;;4.00;99.90;;;4.15;71.89;102075.31;5071484;28;20090;-73
2021/01/09 00:56:26;;;;;;;25.53;19.23;;;4.00;99.90;;;4.13;72.04;102075.28;5072800;28;20066;-73
2021/01/09 00:58:54;;;;;;;28.50;18.97;;;4.00;99.90;;;4.04;72.05;102059.19;5072976;28;20048;-74
2021/01/09 01:01:21;;;;;;;26.43;19.73;;;4.10;99.90;;;4.13;71.97;102077.88;5073108;28;20084;-74
2021/01/09 01:03:49;;;;;;;24.90;18.83;;;4.10;99.90;;;4.08;72.41;102084.66;5072770;28;20036;-74
2021/01/09 01:06:23;;;;;;;26.50;19.10;;;4.00;99.90;;;3.97;72.10;102064.13;5072434;28;20059;-74
2021/01/09 01:08:51;;;;;;;21.73;18.03;;;3.90;99.90;;;4.02;72.01;102084.41;5071571;28;20106;-74
2021/01/09 01:11:24;;;;;;;20.50;16.70;;;3.90;99.90;;;4.03;72.16;102083.56;5072656;28;20040;-74
2021/01/09 01:13:52;;;;;;;20.27;17.20;;;3.90;99.90;;;4.02;71.38;102079.19;5073011;28;20055;-73
2021/01/09 01:16:21;;;;;;;23.30;18.33;;;3.80;99.90;;;4.02;71.41;102083.50;5072352;28;20796;-74
2021/01/09 01:18:49;;;;;;;19.67;17.53;;;3.80;99.90;;;3.82;71.68;102043.44;5072542;28;20044;-74
2021/01/09 01:21:16;;;;;;;18.50;16.23;;;3.90;99.90;;;3.88;71.65;102082.94;5072424;28;20068;-74
2021/01/09 01:23:44;;;;;;;25.23;17.70;;;3.70;99.90;;;3.87;71.76;102109.91;5072460;28;20044;-74
2021/01/09 01:26:12;;;;;;;24.20;17.43;;;3.70;99.90;;;3.93;71.82;102099.72;5072302;28;20037;-74
2021/01/09 01:28:41;;;;;;;21.57;16.80;;;3.70;99.90;;;3.96;71.46;102091.09;5070924;28;20112;-72
2021/01/09 01:31:10;;;;;;;23.17;16.17;;;3.80;99.90;;;3.98;72.08;102098.19;5072098;28;20468;-74
2021/01/09 01:33:39;;;;;;;23.97;18.43;;;3.80;99.90;;;3.95;72.18;102097.19;5072389;28;20131;-74
2021/01/09 01:36:09;;;;;;;23.37;19.57;;;3.90;99.90;;;3.97;72.72;102092.91;5072251;28;20040;-74
2021/01/09 01:38:37;;;;;;;21.92;17.73;;;3.90;99.90;;;4.00;72.77;102106.13;5072701;28;20119;-75
2021/01/09 01:41:06;;;;;;;19.63;16.47;;;3.90;99.90;;;3.95;72.46;102112.88;5072328;28;20044;-74
2021/01/09 01:43:40;;;;;;;21.88;16.52;;;3.80;99.90;;;3.80;72.25;102097.41;5072129;28;20111;-74
2021/01/09 01:46:09;;;;;;;21.40;16.60;;;3.80;99.90;;;3.95;72.85;102112.88;5072304;28;20040;-74
2021/01/09 01:48:39;;;;;;;18.17;16.20;;;3.80;99.90;;;3.89;73.10;102116.13;5072244;28;20132;-75
2021/01/09 01:51:06;;;;;;;22.73;17.57;;;3.70;99.90;;;3.98;74.43;102111.28;5072303;28;20078;-75
2021/01/09 01:53:34;;;;;;;23.00;17.47;;;3.80;99.90;;;3.99;74.47;102113.06;5071884;28;20150;-74
2021/01/09 01:56:02;;;;;;;22.43;17.87;;;3.80;99.90;;;4.04;73.87;102119.41;5072189;28;20041;-74
2021/01/09 01:58:29;;;;;;;21.30;16.73;;;3.90;99.90;;;3.86;73.58;102096.78;5075637;28;20123;-74
2021/01/09 02:00:59;;;;;;;21.37;16.83;;;3.80;99.90;;;3.73;73.24;102078.78;5075664;28;20048;-75
2021/01/09 02:03:27;;;;;;;27.02;17.48;;;3.80;99.90;;;4.03;73.01;102121.94;5076211;28;20115;-75
2021/01/09 02:06:02;;;;;;;24.53;17.10;;;3.90;99.90;;;4.13;73.23;102118.88;5076260;28;20045;-73
2021/01/09 02:08:39;;;;;;;22.43;16.43;;;3.90;99.90;;;4.12;72.96;102112.72;5076033;28;20045;-74
2021/01/09 02:11:17;;;;;;;24.17;17.23;;;4.00;99.90;;;4.26;73.07;102121.16;5075713;28;20473;-74
2021/01/09 02:13:49;;;;;;;24.53;17.23;;;4.00;99.90;;;4.28;73.15;102125.63;5076251;28;20044;-74
2021/01/09 02:16:17;;;;;;;23.47;17.50;;;4.10;99.90;;;4.20;73.59;102118.31;5075597;28;20124;-74
2021/01/09 02:18:48;;;;;;;22.20;16.65;;;4.10;99.90;;;4.30;73.42;102126.59;5076183;28;20052;-74
2021/01/09 02:21:35;;;;;;;19.30;15.97;;;4.10;99.90;;;3.91;72.12;102088.28;5075588;28;20040;-74
2021/01/09 02:24:14;;;;;;;20.70;15.73;;;4.10;99.90;;;4.10;71.44;102129.22;5074497;28;20139;-74
2021/01/09 02:26:42;;;;;;;25.47;15.87;;;4.00;99.90;;;3.96;72.23;102123.41;5075469;28;20040;-73
2021/01/09 02:29:11;;;;;;;22.23;16.37;;;3.80;99.90;;;4.01;71.94;102128.81;5074299;28;20029;-74
2021/01/09 02:31:47;;;;;;;25.17;17.20;;;3.80;99.90;;;3.97;72.52;102126.94;5075651;28;20539;-73
2021/01/09 02:34:15;;;;;;;21.17;16.83;;;3.80;99.90;;;3.87;72.76;102107.31;5075432;28;20307;-74
2021/01/09 02:36:44;;;;;;;22.63;16.53;;;3.90;99.90;;;4.06;72.43;102141.31;5073909;28;20135;-74
2021/01/09 02:39:13;;;;;;;26.17;16.63;;;3.90;99.90;;;4.13;72.12;102137.19;5074105;28;20547;-75
2021/01/09 02:41:42;;;;;;;23.40;16.50;;;3.90;99.90;;;3.99;72.08;102117.44;5075525;28;20049;-74
2021/01/09 02:44:11;;;;;;;22.67;16.77;;;4.00;99.90;;;4.02;72.08;102142.00;5075058;28;20504;-74
2021/01/09 02:46:39;;;;;;;21.92;17.05;;;3.90;99.90;;;3.89;72.07;102144.03;5075297;28;20086;-74
2021/01/09 02:49:10;;;;;;;26.70;17.67;;;3.70;99.90;;;3.91;71.97;102140.63;5074949;28;20040;-74
2021/01/09 02:51:37;;;;;;;20.23;16.65;;;3.80;99.90;;;3.87;71.97;102114.28;5075021;28;20474;-73
2021/01/09 02:54:05;;;;;;;21.70;16.67;;;3.80;99.90;;;3.78;71.54;102111.25;5074928;28;20056;-74
2021/01/09 02:56:33;;;;;;;20.37;15.87;;;3.80;99.90;;;3.76;72.04;102118.13;5075017;28;20063;-74
2021/01/09 02:59:00;;;;;;;19.17;16.57;;;3.70;99.90;;;3.85;71.56;102143.00;5075088;28;20037;-74
2021/01/09 03:01:30;;;;;;;19.90;15.90;;;3.70;99.90;;;3.92;72.03;102149.38;5074894;28;20056;-74
2021/01/09 03:03:58;;;;;;;20.57;15.20;;;3.70;99.90;;;4.23;72.49;102142.91;5073672;28;20059;-74
2021/01/09 03:06:30;;;;;;;19.35;14.70;;;3.90;99.90;;;4.38;72.97;102146.13;5074785;28;20401;-74
2021/01/09 03:08:57;;;;;;;18.60;14.13;;;4.10;99.90;;;4.46;72.79;102147.34;5074730;28;20040;-73
2021/01/09 03:11:25;;;;;;;22.53;16.83;;;4.30;99.90;;;4.13;72.02;102119.78;5073580;28;20045;-74
2021/01/09 03:13:53;;;;;;;20.93;13.83;;;4.20;99.90;;;4.33;71.66;102141.53;5074931;28;20072;-74
2021/01/09 03:16:23;;;;;;;23.90;14.13;;;4.10;99.90;;;4.50;72.65;102150.97;5074869;28;20063;-73
2021/01/09 03:18:53;;;;;;;16.23;12.88;;;4.30;99.90;;;4.64;73.57;102149.81;5074563;28;20041;-73
2021/01/09 03:21:25;;;;;;;20.40;13.20;;;4.40;99.90;;;4.66;74.16;102149.88;5074561;28;20382;-74
2021/01/09 03:23:52;;;;;;;20.13;13.00;;;4.50;99.90;;;4.85;74.60;102160.25;5074370;28;20533;-74
2021/01/09 03:26:19;;;;;;;21.47;13.57;;;4.60;99.90;;;4.89;74.66;102157.81;5074585;28;20041;-74
2021/01/09 03:28:47;;;;;;;20.00;13.20;;;4.70;99.90;;;5.00;74.59;102152.97;5073227;28;20041;-74
2021/01/09 03:31:18;;;;;;;20.17;11.90;;;4.80;99.90;;;5.08;74.26;102159.41;5074539;28;20097;-74
2021/01/09 03:33:45;;;;;;;15.10;11.20;;;4.80;99.90;;;5.20;74.88;102167.75;5073232;28;20048;-74
2021/01/09 03:36:13;;;;;;;14.57;11.00;;;4.90;99.90;;;5.32;75.16;102162.97;5074359;28;20402;-74
2021/01/09 03:38:40;;;;;;;19.00;13.00;;;5.10;99.90;;;5.27;73.66;102164.50;5074403;28;20044;-74
2021/01/09 03:41:07;;;;;;;18.63;12.90;;;5.10;99.90;;;5.26;72.59;102161.00;5074075;28;20048;-74
2021/01/09 03:43:37;;;;;;;20.57;14.17;;;5.10;99.90;;;5.17;72.48;102163.25;5074312;28;20036;-74
2021/01/09 03:46:06;;;;;;;18.30;13.57;;;5.00;99.90;;;5.18;71.61;102159.81;5074281;28;20060;-75
2021/01/09 03:48:35;;;;;;;17.40;13.20;;;5.00;99.90;;;5.07;70.68;102162.88;5073942;28;20044;-74
2021/01/09 03:51:06;;;;;;;16.83;13.50;;;4.90;99.90;;;5.05;69.99;102164.53;5073876;28;20037;-73
2021/01/09 03:53:33;;;;;;;;;;;4.80;99.90;;;5.08;70.59;102164.66;5074581;28;20044;-74
2021/01/09 03:56:02;;;;;;;20.20;13.33;;;4.90;99.90;;;5.04;70.88;102161.00;5073944;28;19916;-74
2021/01/09 03:58:32;;;;;;;19.07;13.10;;;4.80;99.90;;;5.15;71.34;102157.06;5074240;28;20041;-73
2021/01/09 04:01:00;;;;;;;16.37;13.97;;;4.90;99.90;;;4.96;70.49;102161.53;5072420;28;20114;-74
2021/01/09 04:03:27;;;;;;;19.60;13.33;;;4.80;99.90;;;5.04;70.66;102162.75;5073974;28;20038;-74
2021/01/09 04:05:58;;;;;;;14.83;12.57;;;4.80;99.90;;;4.82;69.71;102168.88;5073502;28;20064;-74
2021/01/09 04:08:25;;;;;;;18.03;13.60;;;4.70;99.90;;;4.85;69.79;102158.53;5073861;28;20066;-74
2021/01/09 04:10:53;;;;;;;17.53;12.97;;;4.70;99.90;;;4.38;69.43;102126.91;5073485;28;20075;-74
2021/01/09 04:13:20;;;;;;;20.00;13.43;;;4.50;99.90;;;4.54;69.16;102159.03;5073385;28;20040;-74
2021/01/09 04:15:48;;;;;;;17.73;14.50;;;4.40;99.90;;;4.47;69.57;102162.22;5073648;28;20089;-75
2021/01/09 04:18:15;;;;;;;16.50;13.57;;;4.30;99.90;;;4.53;69.14;102159.84;5073565;28;20040;-74
2021/01/09 04:20:42;;;;;;;16.17;13.10;;;4.30;99.90;;;4.54;69.05;102145.94;5072913;28;20158;-74
2021/01/09 04:23:11;;;;;;;15.50;12.93;;;4.40;99.90;;;4.54;69.71;102166.00;5073519;28;20044;-73
2021/01/09 04:25:38;;;;;;;19.30;14.47;;;4.30;99.90;;;4.47;70.08;102166.59;5073460;28;20565;-75
2021/01/09 04:28:05;;;;;;;19.30;13.80;;;4.30;99.90;;;4.41;69.80;102169.81;5073518;28;20037;-74
2021/01/09 04:30:33;;;;;;;19.90;13.47;;;4.30;99.90;;;4.37;69.92;102167.03;5073327;28;20036;-74
2021/01/09 04:33:00;;;;;;;18.93;13.27;;;4.20;99.90;;;4.41;70.33;102167.19;5073061;28;20062;-75
2021/01/09 04:35:28;;;;;;;15.10;11.77;;;4.20;99.90;;;4.36;70.29;102170.47;5073147;28;20043;-74
2021/01/09 04:37:57;;;;;;;19.43;14.13;;;4.30;99.90;;;4.23;70.82;102166.47;5072875;28;20533;-73
2021/01/09 04:40:25;;;;;;;22.00;15.73;;;4.20;99.90;;;4.17;71.23;102171.44;5073145;28;20432;-74
2021/01/09 04:42:52;;;;;;;20.30;15.23;;;4.10;99.90;;;4.08;71.39;102172.78;5073206;28;20040;-74
2021/01/09 04:45:20;;;;;;;22.57;15.73;;;4.00;99.90;;;4.10;71.06;102172.03;5073028;28;20382;-74
2021/01/09 04:47:49;;;;;;;18.50;14.73;;;3.90;99.90;;;4.04;70.92;102173.47;5072720;28;20436;-74
2021/01/09 04:50:18;;;;;;;19.17;14.80;;;3.90;99.90;;;4.03;71.45;102176.91;5072970;28;20044;-74
2021/01/09 04:52:49;;;;;;;18.87;14.17;;;3.90;99.90;;;4.06;71.81;102170.09;5072884;28;20127;-74
2021/01/09 04:55:17;;;;;;;18.30;14.57;;;3.90;99.90;;;4.27;71.56;102186.72;5072608;28;20086;-74
2021/01/09 04:57:47;;;;;;;18.20;13.93;;;4.00;99.90;;;3.91;71.38;102148.47;5071647;28;20049;-75
2021/01/09 05:00:17;;;;;;;19.05;13.82;;;3.90;99.90;;;3.95;71.02;102186.19;5072914;28;20036;-75
2021/01/09 05:02:45;;;;;;;19.70;14.50;;;3.80;99.90;;;3.85;71.04;102187.50;5072912;28;20098;-74
2021/01/09 05:05:13;;;;;;;20.17;14.03;;;3.70;99.90;;;3.81;71.32;102185.56;5072736;28;20036;-75
2021/01/09 05:07:40;;;;;;;18.67;14.77;;;3.70;99.90;;;3.78;71.26;102179.28;5072482;28;20041;-75
2021/01/09 05:10:08;;;;;;;19.43;14.50;;;3.70;99.90;;;3.66;71.42;102182.25;5072700;28;20070;-74
2021/01/09 05:12:40;;;;;;;19.17;14.00;;;3.60;99.90;;;3.66;71.17;102196.25;5072797;28;20131;-74
2021/01/09 05:15:12;;;;;;;19.67;14.43;;;3.50;99.90;;;3.58;71.02;102189.78;5072854;28;20033;-75
2021/01/09 05:17:41;;;;;;;19.50;14.60;;;3.50;99.90;;;3.55;71.31;102193.97;5088462;28;20402;-74
2021/01/09 05:20:09;;;;;;;19.43;14.43;;;3.40;99.90;;;3.44;71.35;102196.13;5072568;28;20082;-74
2021/01/09 05:22:39;;;;;;;20.97;15.70;;;3.30;99.90;;;3.41;71.35;102197.69;5071176;28;20466;-75
2021/01/09 05:25:08;;;;;;;19.30;14.67;;;3.20;99.90;;;3.21;71.40;102177.59;5071215;28;20470;-75
2021/01/09 05:27:37;;;;;;;17.27;14.23;;;3.20;99.90;;;3.21;71.63;102191.56;5072219;28;20098;-73
2021/01/09 05:30:06;;;;;;;16.97;14.00;;;3.20;99.90;;;3.33;71.66;102206.91;5072508;28;20444;-75
2021/01/09 05:32:34;;;;;;;20.27;14.27;;;3.10;99.90;;;3.31;71.44;102211.19;5071213;28;20074;-74
2021/01/09 05:35:07;;;;;;;16.70;13.27;;;3.10;99.90;;;3.22;71.87;102208.13;5072317;28;20047;-74
2021/01/09 05:37:35;;;;;;;18.50;13.57;;;3.10;99.90;;;3.14;72.03;102199.91;5072203;28;20028;-74
2021/01/09 05:40:05;;;;;;;15.37;13.63;;;3.10;99.90;;;3.19;71.77;102211.50;5072191;28;20482;-75
2021/01/09 05:42:35;;;;;;;15.07;12.30;;;3.00;99.90;;;3.23;71.79;102215.16;5072373;28;20445;-74
2021/01/09 05:45:05;;;;;;;16.03;12.60;;;3.10;99.90;;;3.23;72.60;102209.94;5072217;28;20043;-74
2021/01/09 05:47:37;;;;;;;13.37;11.00;;;3.20;99.90;;;3.28;72.69;102213.63;5072045;28;20060;-74
2021/01/09 05:50:09;;;;;;;11.27;10.20;;;3.20;99.90;;;3.34;73.14;102209.59;5087782;28;20044;-74
2021/01/09 05:52:43;;;;;;;10.90;9.90;;;3.30;99.90;;;3.39;73.79;102215.00;5072004;28;20060;-73
2021/01/09 05:55:11;;;;;;;11.53;10.30;;;3.30;99.90;;;3.42;73.47;102209.94;5071844;28;20037;-74
2021/01/09 05:57:39;;;;;;;9.20;8.40;;;3.30;99.90;;;3.42;73.73;102213.47;5072423;28;20123;-74
2021/01/09 06:00:10;;;;;;;12.30;8.80;;;3.40;99.90;;;3.44;73.37;102294.59;5071837;28;20071;-75
2021/01/09 06:02:57;;;;;;;15.73;13.33;;;3.40;99.90;;;3.24;72.63;102220.44;5072265;28;20139;-73
2021/01/09 06:05:35;;;;;;;17.67;12.70;;;3.20;99.90;;;3.26;72.73;102226.66;5072312;28;20040;-74
2021/01/09 06:08:07;;;;;;;15.63;11.23;;;3.10;99.90;;;3.31;72.17;102229.47;5071858;28;20470;-74
2021/01/09 06:10:40;;;;;;;14.30;11.97;;;3.10;99.90;;;3.34;72.27;102225.28;5071834;28;20033;-74
2021/01/09 06:13:11;;;;;;;12.07;10.60;;;3.20;99.90;;;3.39;71.86;102229.00;5071849;28;20135;-73
2021/01/09 06:15:43;;;;;;;15.27;12.43;;;3.20;99.90;;;3.25;72.32;102210.88;5071913;28;20044;-74
2021/01/09 06:18:13;;;;;;;11.77;10.57;;;3.20;99.90;;;3.34;72.42;102221.75;5071707;28;20036;-74
2021/01/09 06:20:42;;;;;;;8.80;7.90;;;3.30;99.90;;;3.37;72.80;102234.97;5071699;28;20059;-74
2021/01/09 06:23:13;;;;;;;9.97;8.43;;;3.30;99.90;;;3.23;73.80;102215.16;5071872;28;20115;-74
2021/01/09 06:25:42;;;;;;;10.53;9.27;;;3.40;99.90;;;3.40;74.13;102238.66;5071900;28;20072;-74
2021/01/09 06:28:16;;;;;;;13.80;10.53;;;3.40;99.90;;;3.47;74.15;102237.19;5072008;28;20684;-74
2021/01/09 06:30:45;;;;;;;13.17;10.60;;;3.40;99.90;;;3.54;73.39;102239.28;5071891;28;20048;-74
2021/01/09 06:33:17;;;;;;;11.57;9.93;;;3.40;99.90;;;3.47;73.16;102211.03;5070646;28;20048;-74
2021/01/09 06:35:46;;;;;;;13.60;9.10;;;3.40;99.90;;;3.36;73.26;102202.72;5071739;28;20377;-74
2021/01/09 06:38:13;;;;;;;10.10;8.97;;;3.50;99.90;;;3.41;73.67;102208.13;5071751;28;20140;-74
2021/01/09 06:40:41;;;;;;;10.80;9.70;;;3.50;99.90;;;3.61;73.23;102249.19;5071809;28;20044;-74
2021/01/09 06:43:09;;;;;;;10.83;9.00;;;3.50;99.90;;;3.63;73.77;102251.06;5072889;28;20036;-74
2021/01/09 06:45:42;;;;;;;12.03;10.30;;;3.50;99.90;;;3.59;73.97;102222.97;5075389;28;20079;-74
2021/01/09 06:48:12;;;;;;;12.33;10.17;;;3.60;99.90;;;3.58;73.72;102236.84;5075109;28;20036;-75
2021/01/09 06:50:40;;;;;;;11.80;9.80;;;3.60;99.90;;;3.61;73.65;102243.94;5073938;28;20071;-74
2021/01/09 06:53:14;;;;;;;11.07;9.83;;;3.60;99.90;;;3.58;73.18;102220.28;5073983;28;20542;-73
2021/01/09 06:56:08;;;;;;;11.10;9.97;;;3.60;99.90;;;3.77;73.48;102256.91;5090748;28;20036;-74
2021/01/09 06:58:38;;;;;;;10.93;9.77;;;3.60;99.90;;;3.79;73.92;102263.09;5075211;28;20072;-74
2021/01/09 07:01:21;;;;;;;13.47;10.50;;;3.60;99.90;;;3.82;74.10;102255.38;5074715;28;20053;-75
2021/01/09 07:03:49;;;;;;;12.93;10.60;;;3.60;99.90;;;3.80;74.25;102251.78;5074866;28;20548;-74
2021/01/09 07:06:59;;;;;;;11.97;10.17;;;3.70;99.90;;;3.89;73.46;102254.81;5074672;28;20056;-74
2021/01/09 07:09:29;;;;;;;;;;;3.70;99.90;;;3.81;72.45;102245.75;5075354;28;20063;-74
2021/01/09 07:11:56;;;;;;;11.93;10.53;;;3.70;99.90;;;3.80;72.50;102259.66;5074878;28;19920;-75
2021/01/09 07:14:23;;;;;;;11.30;10.10;;;3.70;99.90;;;3.81;72.56;102263.16;5074839;28;20052;-74
2021/01/09 07:16:51;;;;;;;11.13;6.93;;;3.60;99.90;;;4.18;73.75;102262.22;5074486;28;20117;-74
2021/01/09 07:19:24;;;;;;;10.67;6.97;;;3.90;99.90;;;4.47;75.19;102263.50;5074822;28;20429;-74
2021/01/09 07:21:54;;;;;;;11.60;7.50;;;4.20;99.90;;;4.63;76.33;102278.16;5074533;28;20048;-74
2021/01/09 07:24:23;;;;;;;12.48;9.68;;;4.40;99.90;;;4.54;74.57;102276.94;5073412;28;20048;-74
2021/01/09 07:26:51;;;;;;;11.47;9.83;;;4.40;99.90;;;4.48;72.97;102278.38;5074792;28;20032;-74
2021/01/09 07:29:25;;;;;;;15.13;9.80;;;4.30;99.90;;;4.34;72.51;102276.88;5074387;28;20033;-74
2021/01/09 07:31:53;;;;;;;12.90;9.90;;;4.20;99.90;;;4.24;72.73;102275.59;5074349;28;20529;-74
2021/01/09 07:34:23;;;;;;;11.47;10.27;;;4.10;99.90;;;4.15;72.36;102271.69;5074238;28;20720;-75
2021/01/09 07:36:56;;;;;;;11.40;9.27;;;4.00;99.90;;;4.26;72.40;102278.28;5073023;28;20102;-74
2021/01/09 07:39:24;;;;;;;13.23;8.80;;;4.10;99.90;;;4.28;72.42;102277.53;5074480;28;20041;-74
2021/01/09 07:41:52;;;;;;;13.50;9.23;;;4.10;99.90;;;4.10;73.23;102265.38;5074273;28;20109;-73
2021/01/09 07:44:21;;;;;;;16.83;9.60;;;4.00;99.90;;;4.17;73.74;102276.16;5072934;28;20048;-75
2021/01/09 07:46:55;;;;;;;12.80;10.03;;;4.00;99.90;;;4.18;73.12;102287.53;5074150;28;20078;-75
2021/01/09 07:49:28;;;;;;;12.03;9.30;;;4.00;99.90;;;4.20;72.97;102284.13;5072838;28;20053;-73
2021/01/09 07:52:02;;;;;;;12.87;9.73;;;4.00;99.90;;;4.19;73.37;102284.09;5074075;28;20439;-72
2021/01/09 07:54:34;;;;;;;14.00;10.00;;;4.00;99.90;;;4.24;73.37;102290.44;5072758;28;20086;-82
2021/01/09 07:57:02;;;;;;;11.93;10.07;;;4.10;99.90;;;4.29;73.65;102291.50;5089247;28;20052;-74
2021/01/09 07:59:30;;;;;;;11.57;8.93;;;4.10;99.90;;;4.49;74.44;102298.53;5073748;28;20032;-75
2021/01/09 08:01:57;;;;;;;18.10;11.13;;;4.20;99.90;;;4.20;74.28;102273.66;5073190;28;20494;-76
2021/01/09 08:04:25;;;;;;;13.27;10.63;;;4.30;99.90;;;4.35;73.47;102295.31;5073556;28;20177;-78
2021/01/09 08:06:53;;;;;;;14.10;10.07;;;4.20;99.90;;;3.77;73.59;102169.66;5073770;28;20445;-74
2021/01/09 08:09:30;;;;;;;10.60;9.30;;;4.30;99.90;;;4.62;73.45;102305.16;5073440;28;20044;-81
2021/01/09 08:12:07;;;;;;;13.50;10.37;;;4.40;99.90;;;4.55;72.59;102283.94;5073737;28;20106;-79
2021/01/09 08:14:38;;;;;;;12.67;9.87;;;4.50;99.90;;;4.95;71.82;102310.09;5073630;28;20047;-77
2021/01/09 08:17:12;;;;;;;13.77;9.63;;;4.70;99.90;;;5.13;71.71;102318.69;5073499;28;20086;-77
2021/01/09 08:19:39;;;;;;;11.33;8.73;;;4.90;99.90;;;5.26;70.98;102315.75;5073192;28;20033;-79
2021/01/09 08:22:07;;;;;;;10.33;9.13;;;5.10;99.90;;;5.13;70.66;102297.72;5073057;28;20486;-71
2021/01/09 08:24:35;;;;;;;11.17;8.60;;;5.10;99.90;;;5.57;71.33;102325.75;5073577;28;20064;-76
2021/01/09 08:27:02;;;;;;;11.33;8.70;;;5.30;99.90;;;5.94;71.27;102333.31;5073120;28;20040;-77
2021/01/09 08:29:32;;;;;;;10.77;9.03;;;5.60;99.90;;;6.00;69.74;102309.91;5073192;28;20056;-75
2021/01/09 08:32:00;;;;;;;9.30;8.07;;;5.80;99.90;;;6.13;68.43;102333.16;5071709;28;20049;-76
2021/01/09 08:34:28;;;;;;;15.33;9.13;;;5.90;99.90;;;6.15;68.26;102336.75;5072909;28;20466;-74
2021/01/09 08:37:01;;;;;;;11.60;9.17;;;5.90;99.90;;;5.82;68.22;102336.34;5072785;28;20033;-77
2021/01/09 08:39:29;;;;;;;11.77;9.17;;;5.80;99.90;;;6.03;69.42;102313.56;5073076;28;20053;-75
2021/01/09 08:41:57;;;;;;;9.90;7.70;;;6.00;99.90;;;6.17;69.39;102311.44;5072741;28;20036;-77
2021/01/09 08:44:29;;;;;;;10.40;8.37;;;6.10;99.90;;;6.71;69.19;102342.31;5072854;28;20055;-79
2021/01/09 08:46:57;;;;;;;12.33;7.73;;;6.50;99.90;;;7.18;68.18;102346.53;5072554;28;20062;-79
2021/01/09 08:49:27;;;;;;;11.73;7.50;;;6.90;99.90;;;7.38;67.04;102355.97;5072991;28;20051;-79
2021/01/09 08:52:06;;;;;;;12.23;8.20;;;7.20;99.90;;;7.82;66.48;102336.31;5071855;28;20040;-73
2021/01/09 08:54:37;;;;;;;11.55;8.07;;;7.60;99.90;;;8.26;64.43;102361.34;5072742;28;20044;-76
2021/01/09 08:57:06;;;;;;;12.63;8.48;;;8.00;99.90;;;7.93;63.45;102226.84;5072665;28;20185;-74
2021/01/09 08:59:34;;;;;;;12.98;7.95;;;8.50;99.90;;;9.02;62.65;102367.84;5072484;28;20405;-76
2021/01/09 09:02:05;;;;;;;11.02;8.70;;;8.80;99.90;;;9.40;62.46;102379.38;5072103;28;20044;-75
2021/01/09 09:04:33;;;;;;;9.13;7.53;;;9.10;99.90;;;9.70;61.30;102381.00;5072369;28;20047;-77
2021/01/09 09:07:05;;;;;;;8.63;7.72;;;9.40;99.90;;;10.07;60.92;102355.38;5072127;28;20101;-77
2021/01/09 09:09:34;;;;;;;12.05;8.45;;;9.90;99.90;;;10.56;59.91;102379.38;5071391;28;20053;-77
2021/01/09 09:12:01;;;;;;;13.25;8.40;;;10.30;99.90;;;10.81;59.18;102386.94;5072669;28;20048;-75
2021/01/09 09:14:30;;;;;;;8.10;6.63;;;10.60;99.90;;;11.17;58.52;102381.44;5072145;28;20490;-76
2021/01/09 09:16:59;;;;;;;12.40;7.95;;;11.00;99.90;;;11.60;58.03;102386.56;5072210;28;20044;-78
2021/01/09 09:19:27;;;;;;;9.25;7.03;;;11.40;99.90;;;11.91;57.13;102382.63;5072479;28;20064;-77
2021/01/09 09:22:00;;;;;;;12.27;7.20;;;11.70;99.90;;;12.26;55.84;102398.19;5070987;28;20530;-81
2021/01/09 09:24:41;;;;;;;6.63;5.95;;;12.10;99.90;;;12.51;54.53;102389.66;5071043;28;20472;-72
2021/01/09 09:27:26;;;;;;;9.05;6.57;;;12.40;99.90;;;12.82;53.67;102411.22;5071926;28;20041;-72
2021/01/09 09:30:09;;;;;;;12.98;6.60;;;12.60;99.90;;;12.84;52.83;102412.16;5072636;28;20367;-77
2021/01/09 09:32:40;;;;;;;9.88;6.32;;;12.70;99.90;;;12.97;52.89;102406.13;5071960;28;20392;-77
2021/01/09 09:35:23;;;;;;;12.43;6.43;;;12.80;99.90;;;12.40;52.79;102289.56;5072450;28;20041;-78
2021/01/09 09:37:52;;;;;;;8.10;5.75;;;12.80;99.90;;;13.29;51.99;102415.31;5072207;28;20048;-78
2021/01/09 09:40:24;;;;;;;8.55;6.38;;;13.10;99.90;;;13.10;51.43;102414.25;5072185;28;20037;-76
2021/01/09 09:42:52;;;;;;;11.82;6.82;;;13.00;99.90;;;12.88;52.16;102417.53;5072065;28;20098;-78
2021/01/09 09:45:21;;;;;;;9.02;7.03;;;12.70;99.90;;;11.96;52.63;102413.69;5072119;28;20432;-78
2021/01/09 09:47:49;;;;;;;8.30;6.28;;;12.10;99.90;;;11.74;53.77;102401.84;5072138;28;20148;-77
2021/01/09 09:50:21;;;;;;;9.38;6.55;;;11.60;99.90;;;11.07;54.68;102408.63;5072026;28;20048;-77
2021/01/09 09:52:58;;;;;;;9.13;6.75;;;10.90;99.90;;;10.24;56.12;102354.06;5072382;28;20032;-78
2021/01/09 09:55:26;;;;;;;7.65;6.75;;;10.40;99.90;;;9.65;57.86;102403.78;5072068;28;20036;-77
2021/01/09 09:58:10;;;;;;;8.77;6.40;;;9.50;99.90;;;9.77;59.42;102380.31;5071774;28;20066;-77
2021/01/09 10:00:42;;;;;;;10.00;7.47;;;9.60;99.90;;;10.52;59.37;102415.47;5071906;28;20041;-78
2021/01/09 10:03:10;;;;;;;11.95;7.25;;;10.00;99.90;;;10.98;58.80;102384.59;5071801;28;20083;-77
2021/01/09 10:05:38;;;;;;;9.05;6.55;;;10.80;99.90;;;11.69;58.36;102407.97;5071787;28;20497;-77
2021/01/09 10:08:14;;;;;;;10.00;6.88;;;11.40;99.90;;;12.14;57.64;102413.03;5071887;28;20048;-79
2021/01/09 10:10:42;;;;;;;9.32;6.20;;;12.00;99.90;;;12.54;56.77;102402.09;5071655;28;20059;-77
2021/01/09 10:13:10;;;;;;;8.57;6.78;;;12.50;99.90;;;13.01;56.11;102408.78;5071565;28;20066;-78
2021/01/09 10:15:41;;;;;;;12.85;7.18;;;12.90;99.90;;;13.40;55.48;102414.53;5071629;28;20044;-78
2021/01/09 10:18:11;;;;;;;10.05;6.05;;;13.30;99.90;;;13.78;54.93;102406.84;5073020;28;20041;-78
2021/01/09 10:20:39;;;;;;;9.10;6.18;;;13.70;99.90;;;14.11;53.84;102400.88;5075206;28;20060;-77
2021/01/09 10:23:06;;;;;;;10.35;6.10;;;14.10;99.90;;;14.48;52.71;102417.06;5075305;28;20457;-78
2021/01/09 10:25:34;;;;;;;10.18;6.63;;;14.40;99.90;;;14.63;52.11;102397.59;5075253;28;20539;-78
2021/01/09 10:28:01;;;;;;;11.30;6.55;;;14.70;99.90;;;14.66;52.27;102365.63;5075266;28;20107;-78